Time;durP1;ratioP1;P1;durP2;ratioP2;P2;SDS_P1;SDS_P2;PMS_P1;PMS_P2;Temp;Humidity;BMP_temperature;BMP_pressure;BME280_temperature;BME280_humidity;BME280_pressure;Samples;Min_cycle;Max_cycle;Signal;HPM_P1;HPM_P2
2022/03/30 00:02:20;;;;;;;21.20;15.23;;;16.30;30.10;;;;;;20574;6818;306670;-70
2022/03/30 00:04:46;;;;;;;18.57;14.33;;;16.40;30.00;;;;;;20573;6818;277624;-69
2022/03/30 00:07:11;;;;;;;22.40;14.47;;;16.50;30.00;;;;;;20578;6818;278676;-68
2022/03/30 00:09:37;;;;;;;19.50;13.03;;;16.60;30.80;;;;;;20578;6818;306672;-69
2022/03/30 00:12:03;;;;;;;19.70;11.60;;;16.60;30.20;;;;;;20772;6818;117636;-71
2022/03/30 00:14:29;;;;;;;13.70;10.53;;;15.90;30.60;;;;;;20777;6818;117583;-69
2022/03/30 00:16:55;;;;;;;16.98;12.80;;;15.90;30.60;;;;;;20577;6818;336501;-69
2022/03/30 00:19:20;;;;;;;19.47;14.27;;;16.00;31.20;;;;;;20788;6818;117882;-69
2022/03/30 00:21:46;;;;;;;19.97;13.80;;;15.80;30.90;;;;;;20774;6816;144357;-71
2022/03/30 00:24:12;;;;;;;23.17;15.90;;;15.60;30.90;;;;;;20588;6817;277569;-70
2022/03/30 00:26:38;;;;;;;23.27;16.03;;;15.60;31.30;;;;;;20578;6817;277691;-69
2022/03/30 00:29:04;;;;;;;24.05;14.70;;;15.80;31.20;;;;;;20796;6817;117733;-69
2022/03/30 00:31:29;;;;;;;20.30;15.20;;;15.70;31.00;;;;;;20568;6817;307425;-69
2022/03/30 00:33:55;;;;;;;22.40;15.73;;;15.90;31.60;;;;;;20565;6817;278600;-70
2022/03/30 00:36:21;;;;;;;19.60;14.87;;;15.80;31.50;;;;;;20585;6817;283612;-69
2022/03/30 00:38:46;;;;;;;20.23;13.93;;;16.00;31.30;;;;;;20791;6817;117898;-69
2022/03/30 00:41:12;;;;;;;17.03;13.80;;;15.80;31.10;;;;;;20579;6817;307547;-69
2022/03/30 00:43:38;;;;;;;22.60;15.93;;;16.00;31.40;;;;;;20575;6817;307358;-69
2022/03/30 00:46:04;;;;;;;20.93;15.40;;;16.00;31.30;;;;;;20568;6817;286340;-71
2022/03/30 00:48:29;;;;;;;19.63;14.77;;;16.20;31.10;;;;;;20785;6817;117587;-70
2022/03/30 00:50:55;;;;;;;21.40;15.90;;;15.90;30.90;;;;;;20580;6817;278683;-69
2022/03/30 00:53:20;;;;;;;21.25;15.43;;;15.90;31.30;;;;;;20582;6817;310856;-69
2022/03/30 00:55:46;;;;;;;18.80;14.73;;;16.00;31.30;;;;;;20774;6817;117967;-69
2022/03/30 00:58:12;;;;;;;17.47;14.30;;;15.90;31.30;;;;;;20785;6818;118077;-69
2022/03/30 01:00:37;;;;;;;22.08;15.23;;;15.60;31.50;;;;;;20572;6818;276895;-69
2022/03/30 01:03:03;;;;;;;22.33;16.27;;;15.60;31.60;;;;;;20571;6818;306934;-71
2022/03/30 01:05:28;;;;;;;20.35;15.13;;;15.80;31.30;;;;;;20583;6818;307059;-71
2022/03/30 01:08:00;;;;;;;17.73;13.13;;;16.00;31.50;;;;;;20771;6818;118366;-69
2022/03/30 01:10:26;;;;;;;21.50;14.27;;;15.70;31.30;;;;;;20575;6818;306654;-69
2022/03/30 01:12:53;;;;;;;18.67;14.95;;;15.70;31.80;;;;;;20573;6818;277972;-70
2022/03/30 01:15:17;;;;;;;20.93;13.47;;;15.90;31.80;;;;;;20792;6818;117900;-69
2022/03/30 01:17:42;;;;;;;20.50;15.27;;;15.60;31.60;;;;;;20589;6818;345259;-69
2022/03/30 01:20:08;;;;;;;18.77;13.43;;;15.60;32.10;;;;;;20773;6818;117728;-69
2022/03/30 01:22:34;;;;;;;20.17;14.52;;;15.40;32.00;;;;;;20570;6818;325034;-71
2022/03/30 01:24:59;;;;;;;19.02;13.10;;;15.50;32.30;;;;;;20792;6818;117273;-69
2022/03/30 01:27:25;;;;;;;20.20;13.93;;;15.30;32.20;;;;;;20790;6818;117953;-69
2022/03/30 01:32:37;;;;;;;14.90;13.03;;;15.10;32.80;;;;;;20793;6816;117329;-69
2022/03/30 01:35:01;;;;;;;16.97;13.83;;;15.00;32.60;;;;;;20806;6817;117777;-69
2022/03/30 01:37:28;;;;;;;20.77;14.40;;;14.80;32.90;;;;;;20569;6817;277757;-71
2022/03/30 01:39:52;;;;;;;20.30;13.88;;;15.00;33.70;;;;;;20768;6817;126815;-69
2022/03/30 01:42:18;;;;;;;18.03;14.50;;;15.00;33.30;;;;;;20571;6817;306994;-70
2022/03/30 01:44:44;;;;;;;19.80;15.70;;;15.10;33.70;;;;;;20565;6817;307026;-71
2022/03/30 01:47:10;;;;;;;21.33;15.87;;;15.40;33.80;;;;;;20576;6817;307945;-69
2022/03/30 01:49:35;;;;;;;20.43;15.33;;;15.60;33.10;;;;;;20566;6817;307093;-71
2022/03/30 01:52:00;;;;;;;22.23;14.00;;;15.70;32.60;;;;;;20775;6817;117686;-69
2022/03/30 01:54:26;;;;;;;19.23;12.93;;;15.50;32.40;;;;;;20791;6817;117396;-69
2022/03/30 01:56:51;;;;;;;17.98;13.35;;;15.10;32.70;;;;;;20789;6817;118596;-69
2022/03/30 01:59:17;;;;;;;21.12;14.48;;;14.80;33.20;;;;;;20575;6817;277760;-71
2022/03/30 02:01:43;;;;;;;20.23;13.73;;;14.80;34.40;;;;;;20786;6817;117909;-71
2022/03/30 02:04:09;;;;;;;18.50;12.33;;;14.80;33.90;;;;;;20783;6817;117303;-69
2022/03/30 02:06:34;;;;;;;19.83;13.05;;;14.60;33.90;;;;;;20799;6817;117914;-69
2022/03/30 02:09:00;;;;;;;21.17;12.57;;;14.40;34.70;;;;;;20793;6818;117468;-69
2022/03/30 02:11:29;;;;;;;22.40;15.05;;;14.20;34.20;;;;;;20579;6818;277597;-69
2022/03/30 02:13:55;;;;;;;22.83;14.20;;;14.30;34.80;;;;;;20768;6818;122852;-69
2022/03/30 02:16:20;;;;;;;19.73;13.83;;;14.30;34.50;;;;;;20790;6818;117612;-69
2022/03/30 02:18:45;;;;;;;22.87;15.17;;;14.10;34.50;;;;;;20575;6818;310859;-69
2022/03/30 02:21:11;;;;;;;20.67;14.90;;;14.30;35.40;;;;;;20788;6818;117573;-68
2022/03/30 02:23:36;;;;;;;21.67;15.23;;;14.30;34.90;;;;;;20584;6818;281778;-69
2022/03/30 02:26:02;;;;;;;19.53;15.17;;;14.50;35.20;;;;;;20564;6818;277992;-69
2022/03/30 02:28:28;;;;;;;21.17;15.40;;;14.80;34.50;;;;;;20576;6818;341603;-72
2022/03/30 02:30:53;;;;;;;24.55;15.48;;;15.10;34.00;;;;;;20575;6818;309898;-69
2022/03/30 02:33:19;;;;;;;20.97;14.93;;;15.30;33.70;;;;;;20589;6818;279162;-72
2022/03/30 02:35:44;;;;;;;20.77;15.83;;;15.40;33.40;;;;;;20579;6818;317800;-70
2022/03/30 02:38:10;;;;;;;22.10;15.30;;;15.50;33.50;;;;;;20213;6818;306757;-69
2022/03/30 02:40:35;;;;;;;19.80;14.00;;;15.50;33.40;;;;;;20796;6818;117463;-70
2022/03/30 02:43:01;;;;;;;26.77;14.30;;;15.20;33.30;;;;;;20791;6816;120414;-72
2022/03/30 02:45:26;;;;;;;21.52;13.57;;;14.80;33.70;;;;;;20800;6817;117273;-69
2022/03/30 02:50:37;;;;;;;22.33;14.60;;;14.30;34.40;;;;;;20591;6817;307129;-72
2022/03/30 02:53:03;;;;;;;22.55;16.02;;;14.50;35.10;;;;;;20594;6817;306785;-70
2022/03/30 02:55:29;;;;;;;20.63;13.33;;;14.70;34.70;;;;;;20794;6817;117433;-70
2022/03/30 02:57:54;;;;;;;22.08;15.93;;;14.60;34.40;;;;;;20575;6817;307116;-71
2022/03/30 03:00:21;;;;;;;20.67;14.17;;;14.70;34.60;;;;;;20801;6817;120494;-69
2022/03/30 03:02:45;;;;;;;24.40;13.33;;;14.60;34.40;;;;;;20794;6817;118150;-70
2022/03/30 03:05:11;;;;;;;18.27;13.40;;;14.40;34.50;;;;;;20798;6817;117421;-71
2022/03/30 03:07:37;;;;;;;21.52;14.93;;;14.20;34.70;;;;;;20597;6817;277121;-70
2022/03/30 03:10:02;;;;;;;18.10;13.47;;;14.40;35.20;;;;;;20778;6817;120312;-70
2022/03/30 03:12:28;;;;;;;22.37;14.33;;;14.40;34.90;;;;;;20795;6817;121782;-70
2022/03/30 03:14:54;;;;;;;22.00;13.60;;;14.00;35.00;;;;;;20792;6817;117690;-69
2022/03/30 03:17:20;;;;;;;19.12;14.18;;;14.30;36.10;;;;;;20588;6817;308344;-69
2022/03/30 03:19:46;;;;;;;18.23;14.50;;;14.30;36.10;;;;;;20574;6817;278454;-72
2022/03/30 03:22:11;;;;;;;21.00;13.97;;;14.60;36.10;;;;;;20570;6818;277985;-70
2022/03/30 03:24:37;;;;;;;20.90;14.83;;;14.90;35.70;;;;;;20579;6818;307596;-72
2022/03/30 03:27:03;;;;;;;20.50;12.33;;;15.10;35.20;;;;;;20788;6818;123838;-71
2022/03/30 03:29:28;;;;;;;21.67;13.80;;;15.00;35.00;;;;;;20793;6818;117726;-70
2022/03/30 03:31:54;;;;;;;23.23;14.73;;;14.60;35.00;;;;;;20566;6818;307076;-71
2022/03/30 03:34:21;;;;;;;20.90;15.17;;;14.70;35.10;;;;;;20588;6818;307498;-72
2022/03/30 03:36:47;;;;;;;23.10;15.63;;;15.20;35.60;;;;;;20583;6818;335713;-74
2022/03/30 03:39:13;;;;;;;21.53;14.30;;;15.20;34.80;;;;;;20800;6818;117424;-71
2022/03/30 03:41:38;;;;;;;19.50;13.40;;;15.00;34.70;;;;;;20798;6818;117409;-72
2022/03/30 03:44:04;;;;;;;22.43;15.07;;;14.60;35.80;;;;;;20781;6818;118209;-69
2022/03/30 03:46:29;;;;;;;19.93;15.17;;;14.40;35.60;;;;;;20592;6818;340890;-69
2022/03/30 03:48:55;;;;;;;18.47;14.27;;;14.50;36.80;;;;;;20813;6818;117942;-68
2022/03/30 03:51:21;;;;;;;22.23;14.27;;;14.40;36.30;;;;;;20808;6818;117446;-67
2022/03/30 03:53:46;;;;;;;21.30;15.87;;;14.20;36.40;;;;;;20569;6818;311088;-69
2022/03/30 03:56:12;;;;;;;25.25;16.48;;;14.40;37.40;;;;;;20809;6816;123296;-67
2022/03/30 03:58:37;;;;;;;29.15;19.65;;;14.30;37.00;;;;;;20812;6817;116810;-67
2022/03/30 04:01:04;;;;;;;22.10;16.37;;;14.30;37.90;;;;;;20603;6817;307095;-68
2022/03/30 04:03:29;;;;;;;19.67;14.27;;;14.30;37.90;;;;;;20808;6817;117650;-66
2022/03/30 04:05:55;;;;;;;20.27;15.60;;;14.30;37.50;;;;;;20580;6817;278059;-67
2022/03/30 04:08:20;;;;;;;21.00;13.57;;;14.50;38.60;;;;;;20810;6817;117957;-72
2022/03/30 04:10:47;;;;;;;21.50;14.57;;;14.40;38.60;;;;;;20592;6817;307572;-68
2022/03/30 04:13:13;;;;;;;21.37;14.32;;;14.40;39.50;;;;;;20808;6817;117319;-74
2022/03/30 04:15:39;;;;;;;22.85;14.90;;;14.30;39.10;;;;;;20591;6817;311585;-71
2022/03/30 04:18:04;;;;;;;22.63;14.60;;;14.30;40.30;;;;;;20579;6817;278662;-69
2022/03/30 04:20:30;;;;;;;23.63;15.40;;;14.50;40.00;;;;;;20581;6817;307114;-75
2022/03/30 04:22:55;;;;;;;19.67;13.85;;;14.70;40.10;;;;;;20595;6817;277530;-74
2022/03/30 04:25:21;;;;;;;21.13;14.20;;;14.70;39.70;;;;;;20598;6817;340956;-70
2022/03/30 04:27:46;;;;;;;22.57;12.97;;;14.80;40.10;;;;;;20785;6817;118254;-69
2022/03/30 04:30:12;;;;;;;20.60;12.83;;;14.50;39.90;;;;;;20810;6817;118039;-73
2022/03/30 04:32:38;;;;;;;22.73;13.38;;;14.00;40.20;;;;;;20597;6818;335763;-69
2022/03/30 04:35:03;;;;;;;22.55;13.02;;;14.00;41.80;;;;;;20600;6818;307390;-68
2022/03/30 04:37:29;;;;;;;27.57;13.57;;;14.30;42.50;;;;;;20586;6818;306604;-78
2022/03/30 04:39:54;;;;;;;24.85;12.55;;;14.40;42.70;;;;;;20577;6818;336951;-71
2022/03/30 04:42:20;;;;;;;21.23;11.20;;;14.50;43.20;;;;;;20804;6818;121546;-70
2022/03/30 04:44:45;;;;;;;24.60;11.57;;;14.20;42.50;;;;;;20805;6818;118181;-71
2022/03/30 04:47:11;;;;;;;25.45;12.90;;;13.80;42.60;;;;;;20596;6818;306206;-68
2022/03/30 04:49:37;;;;;;;23.30;10.90;;;13.70;43.90;;;;;;20802;6818;117932;-73
2022/03/30 04:52:03;;;;;;;23.95;12.95;;;13.70;43.90;;;;;;20576;6818;336945;-71
2022/03/30 04:54:29;;;;;;;26.70;14.07;;;13.80;45.80;;;;;;20601;6818;286158;-69
2022/03/30 04:56:54;;;;;;;23.70;13.23;;;13.90;46.40;;;;;;20814;6818;116583;-72
2022/03/30 04:59:21;;;;;;;28.43;13.90;;;13.40;45.40;;;;;;20816;6818;117489;-70
2022/03/30 05:01:46;;;;;;;23.43;14.83;;;13.40;45.40;;;;;;20572;6818;311592;-71
2022/03/30 05:04:12;;;;;;;22.57;13.10;;;13.40;45.80;;;;;;20806;6818;118653;-70
2022/03/30 05:06:38;;;;;;;24.40;12.37;;;13.30;45.70;;;;;;20809;6815;117569;-76
2022/03/30 05:09:03;;;;;;;23.45;13.20;;;13.10;45.50;;;;;;20595;6817;308068;-71
2022/03/30 05:11:31;;;;;;;69.70;43.20;;;13.20;46.40;;;;;;20587;6817;311575;-69
2022/03/30 05:13:56;;;;;;;84.03;54.23;;;13.50;46.20;;;;;;20570;6817;291320;-71
2022/03/30 05:16:21;;;;;;;67.97;42.83;;;13.70;46.00;;;;;;20578;6817;283083;-70
2022/03/30 05:18:47;;;;;;;18.80;11.43;;;13.90;46.90;;;;;;20594;6817;332656;-72
2022/03/30 05:21:12;;;;;;;24.73;11.10;;;14.00;44.50;;;;;;20804;6817;118988;-72
2022/03/30 05:23:38;;;;;;;23.37;10.80;;;13.80;44.20;;;;;;20803;6817;117291;-72
2022/03/30 05:26:04;;;;;;;20.02;10.27;;;13.50;44.70;;;;;;20799;6817;121219;-72
2022/03/30 05:28:29;;;;;;;30.30;20.33;;;13.20;45.10;;;;;;20808;6817;118125;-72
2022/03/30 05:30:55;;;;;;;48.33;28.83;;;13.10;45.40;;;;;;20591;6817;336540;-74
2022/03/30 05:33:21;;;;;;;50.17;35.50;;;13.70;47.20;;;;;;20596;6817;311175;-71
2022/03/30 05:35:48;;;;;;;40.20;23.57;;;13.70;46.60;;;;;;20775;6817;117567;-73
2022/03/30 05:38:13;;;;;;;35.10;20.93;;;13.50;45.90;;;;;;20800;6817;117972;-73
2022/03/30 05:40:38;;;;;;;29.37;18.37;;;13.50;45.90;;;;;;20594;6817;280373;-73
2022/03/30 05:43:04;;;;;;;22.47;15.70;;;13.70;47.00;;;;;;20598;6818;277583;-72
2022/03/30 05:45:30;;;;;;;20.73;12.83;;;14.00;46.60;;;;;;20592;6818;328153;-73
2022/03/30 05:47:55;;;;;;;21.12;11.38;;;14.40;46.00;;;;;;20785;6818;123304;-74
2022/03/30 05:50:23;;;;;;;20.60;11.60;;;14.40;45.50;;;;;;20592;6818;301363;-74
2022/03/30 05:52:47;;;;;;;20.87;10.60;;;14.50;45.80;;;;;;20799;6818;117324;-73
2022/03/30 05:55:12;;;;;;;21.63;11.77;;;14.40;45.40;;;;;;20594;6818;308739;-75
2022/03/30 05:57:37;;;;;;;23.40;11.70;;;14.50;45.80;;;;;;20588;6818;306405;-73
2022/03/30 06:00:06;;;;;;;21.30;11.40;;;14.70;45.80;;;;;;20583;6818;282116;-74
2022/03/30 06:02:30;;;;;;;18.20;9.60;;;14.90;45.40;;;;;;20801;6818;117568;-75
2022/03/30 06:04:57;;;;;;;23.67;11.35;;;14.70;45.10;;;;;;20602;6818;303074;-72
2022/03/30 06:07:21;;;;;;;21.37;10.10;;;14.70;45.80;;;;;;20801;6818;117534;-72
2022/03/30 06:09:47;;;;;;;21.02;12.57;;;14.40;45.40;;;;;;20573;6818;337528;-72
2022/03/30 06:12:12;;;;;;;22.60;11.70;;;14.40;46.80;;;;;;20808;6818;119720;-72
2022/03/30 06:14:38;;;;;;;17.07;10.50;;;14.00;46.60;;;;;;20802;6818;123268;-72
2022/03/30 06:17:04;;;;;;;21.77;10.40;;;13.30;47.50;;;;;;20802;6818;117324;-70
2022/03/30 06:19:30;;;;;;;26.77;12.67;;;13.20;47.50;;;;;;20592;6816;308404;-70
2022/03/30 06:21:55;;;;;;;23.52;12.75;;;13.30;49.70;;;;;;20550;6817;307906;-70
2022/03/30 06:24:21;;;;;;;21.30;11.37;;;13.50;49.80;;;;;;20806;6817;117388;-71
2022/03/30 06:26:47;;;;;;;21.10;11.02;;;13.40;49.40;;;;;;20805;6817;117337;-72
2022/03/30 06:29:13;;;;;;;18.73;11.40;;;13.10;49.70;;;;;;20806;6817;117507;-71
2022/03/30 06:31:38;;;;;;;23.23;12.40;;;12.80;49.90;;;;;;20591;6817;336948;-72
2022/03/30 06:34:03;;;;;;;23.90;13.13;;;13.00;51.70;;;;;;20573;6817;308048;-72
2022/03/30 06:36:29;;;;;;;23.57;12.03;;;13.20;51.20;;;;;;20805;6817;117518;-72
2022/03/30 06:38:55;;;;;;;26.90;12.57;;;13.20;50.80;;;;;;20588;6817;337006;-71
2022/03/30 06:41:20;;;;;;;23.70;12.27;;;13.20;52.20;;;;;;20808;6817;117708;-71
2022/03/30 06:43:46;;;;;;;21.50;12.90;;;13.20;52.00;;;;;;20581;6817;310492;-71
2022/03/30 06:46:15;;;;;;;25.00;14.20;;;13.50;52.00;;;;;;20623;6808;277897;-71
2022/03/30 06:48:40;;;;;;;25.42;13.55;;;13.50;52.00;;;;;;20609;6808;307562;-71
2022/03/30 06:51:07;;;;;;;23.92;12.43;;;13.50;51.90;;;;;;20835;6808;122433;-71
2022/03/30 06:53:32;;;;;;;20.33;11.77;;;13.50;51.20;;;;;;20829;6808;118422;-71
2022/03/30 06:55:58;;;;;;;21.23;12.53;;;12.90;52.20;;;;;;20815;6808;117533;-71
2022/03/30 06:58:25;;;;;;;23.13;13.83;;;12.90;52.20;;;;;;20827;6808;117563;-71
2022/03/30 07:00:51;;;;;;;22.25;13.70;;;12.80;52.80;;;;;;20834;6808;118583;-71
2022/03/30 07:03:16;;;;;;;23.83;16.47;;;12.60;53.10;;;;;;20619;6808;310373;-71
2022/03/30 07:05:42;;;;;;;23.73;16.17;;;12.90;54.90;;;;;;20612;6808;341033;-71
2022/03/30 07:10:53;;;;;;;25.40;14.73;;;13.60;52.50;;;;;;20833;6808;117449;-71
2022/03/30 07:13:21;;;;;;;22.80;13.30;;;13.10;52.90;;;;;;20840;6808;117550;-70
2022/03/30 07:15:45;;;;;;;22.60;13.20;;;13.10;52.70;;;;;;20818;6808;117528;-74
2022/03/30 07:18:13;;;;;;;27.00;13.70;;;13.00;54.80;;;;;;20472;6808;313096;-71
2022/03/30 07:20:37;;;;;;;21.27;12.03;;;13.00;54.00;;;;;;20824;6808;117907;-70
2022/03/30 07:23:02;;;;;;;28.55;13.23;;;13.00;53.60;;;;;;20828;6808;117502;-71
2022/03/30 07:25:28;;;;;;;20.33;12.02;;;12.90;53.70;;;;;;20833;6808;117446;-71
2022/03/30 07:27:53;;;;;;;19.20;12.40;;;12.70;53.70;;;;;;20792;6808;117895;-71
2022/03/30 07:30:19;;;;;;;25.07;14.53;;;12.60;53.80;;;;;;20623;6807;277577;-71
2022/03/30 07:32:47;;;;;;;21.17;13.47;;;12.80;52.70;;;;;;20831;6808;117418;-71
2022/03/30 07:35:12;;;;;;;24.67;13.50;;;12.80;53.20;;;;;;20835;6808;117412;-71
2022/03/30 07:37:38;;;;;;;23.97;12.87;;;12.70;53.40;;;;;;20829;6808;119881;-73
2022/03/30 07:40:04;;;;;;;24.67;14.95;;;12.60;53.60;;;;;;20601;6808;278307;-71
2022/03/30 07:42:30;;;;;;;24.93;15.80;;;13.20;54.00;;;;;;20617;6808;306552;-71
2022/03/30 07:44:56;;;;;;;29.93;13.30;;;13.20;54.00;;;;;;20836;6808;119787;-71
2022/03/30 07:47:22;;;;;;;26.27;15.20;;;13.30;53.70;;;;;;20622;6808;293145;-71
2022/03/30 07:49:47;;;;;;;29.30;13.60;;;13.20;53.60;;;;;;20815;6808;118301;-71
2022/03/30 07:52:13;;;;;;;21.60;13.27;;;13.20;53.40;;;;;;20832;6808;117574;-71
2022/03/30 07:54:39;;;;;;;23.73;14.93;;;13.00;53.60;;;;;;20622;6808;327780;-71
2022/03/30 07:57:04;;;;;;;25.05;15.15;;;13.20;54.50;;;;;;20623;6808;277593;-71
2022/03/30 07:59:30;;;;;;;25.27;13.70;;;13.50;53.80;;;;;;20838;6808;117786;-71
2022/03/30 08:01:58;;;;;;;20.00;12.35;;;13.50;53.50;;;;;;20809;6808;121406;-71
2022/03/30 08:04:21;;;;;;;29.63;15.90;;;13.20;53.70;;;;;;20610;6808;342152;-71
2022/03/30 08:06:47;;;;;;;41.58;35.45;;;13.40;54.30;;;;;;20626;6808;278232;-71
2022/03/30 08:09:12;;;;;;;42.33;33.33;;;13.60;53.90;;;;;;20617;6808;312409;-71
2022/03/30 08:11:38;;;;;;;34.23;22.47;;;13.90;53.50;;;;;;20832;6808;117477;-71
2022/03/30 08:14:03;;;;;;;29.03;21.03;;;13.70;53.30;;;;;;20603;6808;311179;-70
2022/03/30 08:16:32;;;;;;;24.27;14.73;;;13.90;53.60;;;;;;20619;6808;306861;-70
2022/03/30 08:18:56;;;;;;;24.00;13.43;;;13.90;53.60;;;;;;20830;6808;117483;-71
2022/03/30 08:24:06;;;;;;;25.83;11.90;;;13.60;53.90;;;;;;20821;6808;118175;-72
2022/03/30 08:26:33;;;;;;;20.40;11.20;;;13.30;54.20;;;;;;20837;6808;122338;-72
2022/03/30 08:28:57;;;;;;;20.57;11.30;;;13.20;54.70;;;;;;20835;6808;117461;-72
2022/03/30 08:31:24;;;;;;;24.02;16.15;;;13.30;55.40;;;;;;20623;6808;306987;-72
2022/03/30 08:33:49;;;;;;;28.33;20.42;;;13.30;55.30;;;;;;20602;6808;335710;-72
2022/03/30 08:36:16;;;;;;;23.70;15.23;;;13.70;54.80;;;;;;20617;6808;324056;-70
2022/03/30 08:38:40;;;;;;;24.73;18.70;;;14.00;53.30;;;;;;20836;6808;121552;-74
2022/03/30 08:41:07;;;;;;;19.23;13.82;;;14.00;54.00;;;;;;20620;6807;336775;-72
2022/03/30 08:43:32;;;;;;;25.13;15.17;;;14.00;54.00;;;;;;20620;6808;317249;-72
2022/03/30 08:46:00;;;;;;;26.20;16.60;;;14.40;52.90;;;;;;20600;6808;277647;-73
2022/03/30 08:48:24;;;;;;;21.40;13.85;;;14.40;52.90;;;;;;20620;6808;306837;-72
2022/03/30 08:50:50;;;;;;;20.02;13.07;;;14.60;52.40;;;;;;20829;6808;117435;-73
2022/03/30 08:53:19;;;;;;;28.37;20.47;;;14.30;52.40;;;;;;20613;6808;310755;-72
2022/03/30 08:55:44;;;;;;;27.17;15.40;;;14.30;52.90;;;;;;20608;6808;306617;-72
2022/03/30 08:58:09;;;;;;;25.43;16.43;;;14.50;52.90;;;;;;20587;6808;277510;-73
2022/03/30 09:00:35;;;;;;;49.03;38.93;;;14.60;52.80;;;;;;20624;6808;307276;-72
2022/03/30 09:03:01;;;;;;;52.47;41.90;;;14.70;52.90;;;;;;20836;6808;117402;-72
2022/03/30 09:05:26;;;;;;;28.95;18.92;;;14.50;53.00;;;;;;20830;6808;124398;-72
2022/03/30 09:07:51;;;;;;;24.73;13.10;;;14.20;53.60;;;;;;20599;6808;282256;-73
2022/03/30 09:10:20;;;;;;;25.88;14.30;;;14.20;53.80;;;;;;20827;6808;118634;-73
2022/03/30 09:12:46;;;;;;;27.17;17.90;;;14.10;53.70;;;;;;20616;6808;278392;-72
2022/03/30 09:15:12;;;;;;;26.00;16.10;;;14.20;53.70;;;;;;20827;6808;123362;-72
2022/03/30 09:17:37;;;;;;;24.40;16.00;;;14.10;53.50;;;;;;20621;6808;311422;-72
2022/03/30 09:20:04;;;;;;;27.33;18.25;;;14.50;53.60;;;;;;20590;6808;306992;-72
2022/03/30 09:22:31;;;;;;;18.73;11.70;;;14.50;53.60;;;;;;20828;6808;118816;-71
2022/03/30 09:24:55;;;;;;;20.10;11.30;;;14.30;53.40;;;;;;20835;6808;117490;-71
2022/03/30 09:27:23;;;;;;;21.37;12.57;;;14.10;54.00;;;;;;20616;6808;310566;-73
2022/03/30 09:29:46;;;;;;;40.17;24.77;;;14.20;54.80;;;;;;20810;6808;123161;-72
2022/03/30 09:32:11;;;;;;;25.80;13.40;;;14.20;54.70;;;;;;20832;6808;118083;-71
2022/03/30 09:34:37;;;;;;;22.20;11.35;;;14.00;55.00;;;;;;20823;6808;117498;-69
2022/03/30 09:37:03;;;;;;;23.05;12.98;;;13.80;55.30;;;;;;20579;6808;337671;-71
2022/03/30 09:39:32;;;;;;;22.53;12.03;;;14.00;55.70;;;;;;20799;6808;117928;-73
2022/03/30 09:41:59;;;;;;;24.75;14.38;;;14.10;55.50;;;;;;20591;6808;307382;-72
2022/03/30 09:44:23;;;;;;;22.97;14.67;;;14.60;55.40;;;;;;20615;6808;306867;-71
2022/03/30 09:46:49;;;;;;;29.67;15.20;;;14.60;55.20;;;;;;20631;6808;299349;-71
2022/03/30 09:49:14;;;;;;;28.07;15.70;;;14.90;54.20;;;;;;20607;6808;277979;-71
2022/03/30 09:51:40;;;;;;;16.67;12.87;;;15.10;53.90;;;;;;20773;6808;117448;-71
2022/03/30 09:54:07;;;;;;;22.40;13.93;;;14.90;53.70;;;;;;20552;6807;277166;-72
2022/03/30 09:56:33;;;;;;;22.13;13.80;;;15.00;53.80;;;;;;20616;6808;277122;-72
2022/03/30 09:58:59;;;;;;;22.00;12.53;;;14.90;52.80;;;;;;20831;6808;118447;-71
2022/03/30 10:01:29;;;;;;;20.80;12.33;;;14.90;52.80;;;;;;20824;6808;117778;-71
2022/03/30 10:03:58;;;;;;;23.97;15.23;;;14.60;53.40;;;;;;20803;6808;117845;-71
2022/03/30 10:06:22;;;;;;;24.00;14.82;;;14.40;54.10;;;;;;20610;6808;336464;-72
2022/03/30 10:08:48;;;;;;;23.90;13.03;;;14.50;54.30;;;;;;20829;6808;117411;-71
2022/03/30 10:11:16;;;;;;;24.70;17.05;;;14.50;54.20;;;;;;20616;6808;308525;-71
2022/03/30 10:13:39;;;;;;;44.45;22.55;;;14.70;54.40;;;;;;20828;6808;121802;-70
2022/03/30 10:16:08;;;;;;;36.78;24.40;;;14.60;54.10;;;;;;20599;6808;277728;-70
2022/03/30 10:18:34;;;;;;;45.70;34.37;;;14.80;54.40;;;;;;20834;6808;117919;-70
2022/03/30 10:21:10;;;;;;;26.35;16.55;;;14.80;54.30;;;;;;20612;6808;336968;-68
2022/03/30 10:24:05;;;;;;;32.27;21.33;;;14.80;54.30;;;;;;20817;6808;117447;-70
2022/03/30 10:26:38;;;;;;;22.00;12.53;;;14.70;54.30;;;;;;20838;6808;118308;-70
2022/03/30 10:29:06;;;;;;;28.03;19.07;;;14.60;55.00;;;;;;20832;6808;118398;-70
2022/03/30 10:31:31;;;;;;;29.52;20.17;;;14.40;55.40;;;;;;20604;6808;307948;-71
2022/03/30 10:33:57;;;;;;;24.77;13.87;;;14.70;55.20;;;;;;20597;6808;300286;-70
2022/03/30 10:36:29;;;;;;;25.02;14.27;;;15.00;54.10;;;;;;20609;6808;277580;-71
2022/03/30 10:39:15;;;;;;;25.87;14.50;;;15.50;53.70;;;;;;20591;6808;277621;-71
2022/03/30 10:42:08;;;;;;;25.95;13.68;;;15.70;53.00;;;;;;20611;6808;293926;-71
2022/03/30 10:44:46;;;;;;;22.90;12.70;;;15.70;53.00;;;;;;20821;6808;117923;-70
2022/03/30 10:47:17;;;;;;;22.65;13.15;;;15.40;53.30;;;;;;20603;6808;307913;-69
2022/03/30 10:49:46;;;;;;;22.23;14.30;;;15.30;53.90;;;;;;20821;6808;118005;-71
2022/03/30 10:52:41;;;;;;;20.10;14.70;;;15.30;53.30;;;;;;20602;6808;336651;-74
2022/03/30 10:55:14;;;;;;;19.77;12.30;;;15.40;54.80;;;;;;20831;6808;117872;-71
2022/03/30 10:57:47;;;;;;;24.67;15.57;;;15.30;54.90;;;;;;20602;6808;307813;-71
2022/03/30 11:00:18;;;;;;;21.87;12.60;;;15.60;55.40;;;;;;20615;6808;309293;-71
2022/03/30 11:02:43;;;;;;;21.33;13.47;;;16.10;53.60;;;;;;20611;6808;306605;-73
2022/03/30 11:05:09;;;;;;;18.60;11.03;;;16.50;52.00;;;;;;20836;6807;117518;-73
2022/03/30 11:07:36;;;;;;;17.80;12.07;;;16.50;51.30;;;;;;20620;6808;277637;-72
2022/03/30 11:10:21;;;;;;;16.27;10.60;;;16.50;51.80;;;;;;20807;6808;118654;-74
2022/03/30 11:12:59;;;;;;;22.33;14.05;;;16.50;51.10;;;;;;20623;6808;337027;-71
2022/03/30 11:15:25;;;;;;;17.50;11.40;;;16.50;51.10;;;;;;20831;6808;117891;-87
2022/03/30 11:17:51;;;;;;;17.70;12.23;;;16.50;50.70;;;;;;20602;6808;344209;-76
2022/03/30 11:20:19;;;;;;;15.10;9.73;;;16.50;50.70;;;;;;20834;6808;117900;-74
2022/03/30 11:22:44;;;;;;;17.20;10.30;;;16.40;50.70;;;;;;20827;6808;118431;-75
2022/03/30 11:25:18;;;;;;;16.50;9.68;;;16.20;51.10;;;;;;20827;6808;117454;-75
2022/03/30 11:27:40;;;;;;;15.50;11.63;;;15.90;51.40;;;;;;20611;6808;307239;-74
2022/03/30 11:30:05;;;;;;;20.23;11.63;;;16.10;51.30;;;;;;20593;6808;285437;-80
2022/03/30 11:32:42;;;;;;;15.03;10.87;;;16.30;50.70;;;;;;20831;6808;121518;-79
2022/03/30 11:35:11;;;;;;;17.53;9.43;;;16.30;51.50;;;;;;20820;6808;118085;-71
2022/03/30 11:37:39;;;;;;;17.83;10.80;;;16.10;51.50;;;;;;20604;6808;340669;-75
2022/03/30 11:40:15;;;;;;;17.47;10.80;;;16.20;51.60;;;;;;20593;6808;406055;-71
2022/03/30 11:42:44;;;;;;;15.00;9.23;;;16.50;50.10;;;;;;20820;6808;117761;-74
2022/03/30 11:45:13;;;;;;;17.85;10.38;;;16.50;50.10;;;;;;20603;6808;306996;-75
2022/03/30 11:47:43;;;;;;;16.43;9.73;;;16.70;49.80;;;;;;20618;6808;307924;-75
2022/03/30 11:50:08;;;;;;;14.83;9.40;;;16.80;49.50;;;;;;20800;6808;117727;-79
2022/03/30 11:52:34;;;;;;;13.77;8.90;;;16.80;49.50;;;;;;20814;6808;118057;-77
2022/03/30 11:54:59;;;;;;;12.57;8.95;;;16.60;50.10;;;;;;20617;6808;336413;-73
2022/03/30 11:57:25;;;;;;;14.03;9.73;;;16.80;49.10;;;;;;20634;6808;277165;-76
2022/03/30 11:59:57;;;;;;;10.83;8.43;;;17.10;49.30;;;;;;20607;6808;308390;-71
2022/03/30 12:02:24;;;;;;;9.37;6.53;;;17.30;48.00;;;;;;20827;6808;117935;-71
2022/03/30 12:04:49;;;;;;;9.43;7.23;;;17.30;48.00;;;;;;20828;6808;117095;-77
2022/03/30 12:07:15;;;;;;;13.38;7.22;;;17.10;48.30;;;;;;20841;6808;120497;-75
2022/03/30 12:09:43;;;;;;;11.18;7.47;;;16.80;48.70;;;;;;20830;6808;117752;-72
2022/03/30 12:12:11;;;;;;;12.83;7.93;;;16.70;49.10;;;;;;20596;6808;281304;-73
2022/03/30 12:14:34;;;;;;;9.23;6.23;;;16.90;46.90;;;;;;20823;6808;123489;-76
2022/03/30 12:17:01;;;;;;;9.63;6.68;;;16.90;47.30;;;;;;20834;6807;117231;-74
2022/03/30 12:19:26;;;;;;;11.13;7.10;;;16.60;47.20;;;;;;20834;6808;117072;-74
2022/03/30 12:21:51;;;;;;;18.55;16.00;;;16.40;47.40;;;;;;20607;6808;306668;-76
2022/03/30 12:24:22;;;;;;;24.02;17.73;;;16.50;46.90;;;;;;20619;6808;306905;-75
2022/03/30 12:26:44;;;;;;;42.07;32.10;;;16.70;46.80;;;;;;20822;6808;117412;-74